sensor_id;sensor_type;location;lat;lon;timestamp;P1;durP1;ratioP1;P2;durP2;ratioP2
11960;SDS011;6040;49.358;11.140;2023-12-29T00:00:10;3.92;;;3.50;;
11960;SDS011;6040;49.358;11.140;2023-12-29T00:02:38;4.22;;;3.38;;
11960;SDS011;6040;49.358;11.140;2023-12-29T00:05:05;4.13;;;3.63;;
11960;SDS011;6040;49.358;11.140;2023-12-29T00:07:32;4.22;;;3.50;;
11960;SDS011;6040;49.358;11.140;2023-12-29T00:09:59;4.50;;;3.45;;
11960;SDS011;6040;49.358;11.140;2023-12-29T00:12:27;4.50;;;3.53;;
11960;SDS011;6040;49.358;11.140;2023-12-29T00:14:54;3.93;;;3.50;;
11960;SDS011;6040;49.358;11.140;2023-12-29T00:17:22;4.03;;;3.28;;
11960;SDS011;6040;49.358;11.140;2023-12-29T00:19:49;4.43;;;3.47;;
11960;SDS011;6040;49.358;11.140;2023-12-29T00:22:16;4.00;;;3.40;;
11960;SDS011;6040;49.358;11.140;2023-12-29T00:24:43;3.40;;;3.10;;
11960;SDS011;6040;49.358;11.140;2023-12-29T00:27:10;4.15;;;3.30;;
11960;SDS011;6040;49.358;11.140;2023-12-29T00:29:37;4.65;;;3.40;;
11960;SDS011;6040;49.358;11.140;2023-12-29T00:32:04;3.37;;;3.00;;
11960;SDS011;6040;49.358;11.140;2023-12-29T00:34:33;4.35;;;3.65;;
11960;SDS011;6040;49.358;11.140;2023-12-29T00:37:02;4.28;;;3.50;;
11960;SDS011;6040;49.358;11.140;2023-12-29T00:39:30;4.70;;;3.50;;
11960;SDS011;6040;49.358;11.140;2023-12-29T00:42:03;4.55;;;3.15;;
11960;SDS011;6040;49.358;11.140;2023-12-29T00:44:31;4.40;;;3.08;;
11960;SDS011;6040;49.358;11.140;2023-12-29T00:46:58;3.88;;;3.15;;
11960;SDS011;6040;49.358;11.140;2023-12-29T00:49:25;5.13;;;3.40;;
11960;SDS011;6040;49.358;11.140;2023-12-29T00:51:53;4.30;;;3.15;;
11960;SDS011;6040;49.358;11.140;2023-12-29T00:54:20;4.05;;;3.15;;
11960;SDS011;6040;49.358;11.140;2023-12-29T00:56:50;4.00;;;3.13;;
11960;SDS011;6040;49.358;11.140;2023-12-29T00:59:17;3.70;;;3.13;;
11960;SDS011;6040;49.358;11.140;2023-12-29T01:01:45;3.50;;;3.20;;
11960;SDS011;6040;49.358;11.140;2023-12-29T01:04:11;3.53;;;3.22;;
11960;SDS011;6040;49.358;11.140;2023-12-29T01:06:38;3.40;;;3.10;;
11960;SDS011;6040;49.358;11.140;2023-12-29T01:09:07;3.50;;;3.03;;
11960;SDS011;6040;49.358;11.140;2023-12-29T01:11:35;3.60;;;3.30;;
11960;SDS011;6040;49.358;11.140;2023-12-29T01:14:02;3.30;;;3.00;;
11960;SDS011;6040;49.358;11.140;2023-12-29T01:16:29;4.68;;;3.00;;
11960;SDS011;6040;49.358;11.140;2023-12-29T01:18:56;3.30;;;3.00;;
11960;SDS011;6040;49.358;11.140;2023-12-29T01:21:22;3.70;;;3.30;;
11960;SDS011;6040;49.358;11.140;2023-12-29T01:23:49;3.20;;;2.90;;
11960;SDS011;6040;49.358;11.140;2023-12-29T01:26:17;3.33;;;3.03;;
11960;SDS011;6040;49.358;11.140;2023-12-29T01:28:44;3.30;;;3.00;;
11960;SDS011;6040;49.358;11.140;2023-12-29T01:31:11;3.00;;;2.60;;
11960;SDS011;6040;49.358;11.140;2023-12-29T01:33:38;3.45;;;2.92;;
11960;SDS011;6040;49.358;11.140;2023-12-29T01:36:05;4.45;;;2.97;;
11960;SDS011;6040;49.358;11.140;2023-12-29T01:38:32;3.33;;;2.83;;
11960;SDS011;6040;49.358;11.140;2023-12-29T01:40:59;3.50;;;2.80;;
11960;SDS011;6040;49.358;11.140;2023-12-29T01:43:27;3.72;;;3.00;;
11960;SDS011;6040;49.358;11.140;2023-12-29T01:45:54;4.35;;;2.95;;
11960;SDS011;6040;49.358;11.140;2023-12-29T01:48:21;3.05;;;2.70;;
11960;SDS011;6040;49.358;11.140;2023-12-29T01:50:49;5.23;;;3.10;;
11960;SDS011;6040;49.358;11.140;2023-12-29T01:53:17;3.42;;;2.80;;
11960;SDS011;6040;49.358;11.140;2023-12-29T01:55:44;4.47;;;2.97;;
11960;SDS011;6040;49.358;11.140;2023-12-29T01:58:11;4.45;;;2.80;;
11960;SDS011;6040;49.358;11.140;2023-12-29T02:00:40;3.40;;;2.97;;
11960;SDS011;6040;49.358;11.140;2023-12-29T02:03:07;3.72;;;3.00;;
11960;SDS011;6040;49.358;11.140;2023-12-29T02:05:33;3.60;;;3.10;;
11960;SDS011;6040;49.358;11.140;2023-12-29T02:08:01;4.80;;;3.40;;
11960;SDS011;6040;49.358;11.140;2023-12-29T02:10:28;4.40;;;3.00;;
11960;SDS011;6040;49.358;11.140;2023-12-29T02:12:55;4.20;;;3.25;;
11960;SDS011;6040;49.358;11.140;2023-12-29T02:15:25;4.40;;;3.30;;
11960;SDS011;6040;49.358;11.140;2023-12-29T02:17:55;4.82;;;3.50;;
11960;SDS011;6040;49.358;11.140;2023-12-29T02:20:27;4.47;;;3.47;;
11960;SDS011;6040;49.358;11.140;2023-12-29T02:22:54;4.07;;;3.40;;
11960;SDS011;6040;49.358;11.140;2023-12-29T02:25:22;4.73;;;3.67;;
11960;SDS011;6040;49.358;11.140;2023-12-29T02:27:49;4.25;;;3.85;;
11960;SDS011;6040;49.358;11.140;2023-12-29T02:30:20;4.13;;;3.60;;
11960;SDS011;6040;49.358;11.140;2023-12-29T02:32:52;4.05;;;3.67;;
11960;SDS011;6040;49.358;11.140;2023-12-29T02:35:26;4.75;;;3.60;;
11960;SDS011;6040;49.358;11.140;2023-12-29T02:37:54;4.28;;;3.80;;
11960;SDS011;6040;49.358;11.140;2023-12-29T02:40:24;3.88;;;3.50;;
11960;SDS011;6040;49.358;11.140;2023-12-29T02:42:51;4.68;;;3.78;;
11960;SDS011;6040;49.358;11.140;2023-12-29T02:45:18;4.53;;;3.90;;
11960;SDS011;6040;49.358;11.140;2023-12-29T02:47:45;4.28;;;3.80;;
11960;SDS011;6040;49.358;11.140;2023-12-29T02:50:12;4.22;;;3.80;;
11960;SDS011;6040;49.358;11.140;2023-12-29T02:52:39;5.90;;;3.95;;
11960;SDS011;6040;49.358;11.140;2023-12-29T02:55:06;5.00;;;3.97;;
11960;SDS011;6040;49.358;11.140;2023-12-29T02:57:35;4.05;;;3.60;;
11960;SDS011;6040;49.358;11.140;2023-12-29T03:00:02;5.20;;;4.05;;
11960;SDS011;6040;49.358;11.140;2023-12-29T03:02:30;4.20;;;3.80;;
11960;SDS011;6040;49.358;11.140;2023-12-29T03:04:56;4.03;;;3.63;;
11960;SDS011;6040;49.358;11.140;2023-12-29T03:07:23;4.40;;;4.00;;
11960;SDS011;6040;49.358;11.140;2023-12-29T03:09:50;4.40;;;3.92;;
11960;SDS011;6040;49.358;11.140;2023-12-29T03:12:17;4.20;;;3.80;;
11960;SDS011;6040;49.358;11.140;2023-12-29T03:14:45;5.03;;;4.00;;
11960;SDS011;6040;49.358;11.140;2023-12-29T03:17:12;4.93;;;4.03;;
11960;SDS011;6040;49.358;11.140;2023-12-29T03:19:39;4.40;;;3.90;;
11960;SDS011;6040;49.358;11.140;2023-12-29T03:22:06;4.30;;;3.90;;
11960;SDS011;6040;49.358;11.140;2023-12-29T03:24:34;6.00;;;4.00;;
11960;SDS011;6040;49.358;11.140;2023-12-29T03:27:01;4.38;;;3.90;;
11960;SDS011;6040;49.358;11.140;2023-12-29T03:29:28;5.40;;;3.97;;
11960;SDS011;6040;49.358;11.140;2023-12-29T03:31:56;4.97;;;3.97;;
11960;SDS011;6040;49.358;11.140;2023-12-29T03:34:23;4.32;;;3.92;;
11960;SDS011;6040;49.358;11.140;2023-12-29T03:36:50;4.82;;;4.32;;
11960;SDS011;6040;49.358;11.140;2023-12-29T03:39:17;4.73;;;4.00;;
11960;SDS011;6040;49.358;11.140;2023-12-29T03:41:43;5.05;;;4.07;;
11960;SDS011;6040;49.358;11.140;2023-12-29T03:44:10;4.85;;;4.20;;
11960;SDS011;6040;49.358;11.140;2023-12-29T03:46:37;4.50;;;4.10;;
11960;SDS011;6040;49.358;11.140;2023-12-29T03:49:06;4.38;;;3.95;;
11960;SDS011;6040;49.358;11.140;2023-12-29T03:51:33;4.38;;;3.97;;
11960;SDS011;6040;49.358;11.140;2023-12-29T03:54:00;4.60;;;4.20;;
11960;SDS011;6040;49.358;11.140;2023-12-29T03:56:28;5.00;;;3.90;;
11960;SDS011;6040;49.358;11.140;2023-12-29T03:58:55;5.18;;;4.25;;
11960;SDS011;6040;49.358;11.140;2023-12-29T04:01:22;4.60;;;4.05;;
11960;SDS011;6040;49.358;11.140;2023-12-29T04:03:50;6.30;;;4.50;;
11960;SDS011;6040;49.358;11.140;2023-12-29T04:06:18;4.80;;;4.30;;
11960;SDS011;6040;49.358;11.140;2023-12-29T04:08:45;4.95;;;4.53;;
11960;SDS011;6040;49.358;11.140;2023-12-29T04:11:12;5.35;;;4.65;;
11960;SDS011;6040;49.358;11.140;2023-12-29T04:13:39;5.82;;;4.53;;
11960;SDS011;6040;49.358;11.140;2023-12-29T04:16:06;4.50;;;4.10;;
11960;SDS011;6040;49.358;11.140;2023-12-29T04:18:32;5.45;;;4.30;;
11960;SDS011;6040;49.358;11.140;2023-12-29T04:20:59;5.15;;;4.55;;
11960;SDS011;6040;49.358;11.140;2023-12-29T04:23:28;5.25;;;4.45;;
11960;SDS011;6040;49.358;11.140;2023-12-29T04:25:54;6.15;;;4.63;;
11960;SDS011;6040;49.358;11.140;2023-12-29T04:28:22;6.10;;;4.80;;
11960;SDS011;6040;49.358;11.140;2023-12-29T04:30:48;5.15;;;4.60;;
11960;SDS011;6040;49.358;11.140;2023-12-29T04:33:15;5.93;;;4.82;;
11960;SDS011;6040;49.358;11.140;2023-12-29T04:35:42;5.15;;;4.30;;
11960;SDS011;6040;49.358;11.140;2023-12-29T04:38:09;6.57;;;4.57;;
11960;SDS011;6040;49.358;11.140;2023-12-29T04:40:37;6.00;;;4.55;;
11960;SDS011;6040;49.358;11.140;2023-12-29T04:43:04;5.17;;;4.60;;
11960;SDS011;6040;49.358;11.140;2023-12-29T04:45:31;5.93;;;4.80;;
11960;SDS011;6040;49.358;11.140;2023-12-29T04:47:57;5.05;;;4.55;;
11960;SDS011;6040;49.358;11.140;2023-12-29T04:50:24;5.10;;;4.60;;
11960;SDS011;6040;49.358;11.140;2023-12-29T04:52:51;4.82;;;4.25;;
11960;SDS011;6040;49.358;11.140;2023-12-29T04:55:18;5.13;;;4.47;;
11960;SDS011;6040;49.358;11.140;2023-12-29T04:57:46;5.25;;;4.70;;
11960;SDS011;6040;49.358;11.140;2023-12-29T05:00:14;5.35;;;4.85;;
11960;SDS011;6040;49.358;11.140;2023-12-29T05:02:41;5.20;;;4.60;;
11960;SDS011;6040;49.358;11.140;2023-12-29T05:05:08;5.63;;;4.60;;
11960;SDS011;6040;49.358;11.140;2023-12-29T05:07:35;5.32;;;4.50;;
11960;SDS011;6040;49.358;11.140;2023-12-29T05:10:02;4.40;;;3.88;;
11960;SDS011;6040;49.358;11.140;2023-12-29T05:12:29;5.70;;;4.50;;
11960;SDS011;6040;49.358;11.140;2023-12-29T05:14:57;5.00;;;4.50;;
11960;SDS011;6040;49.358;11.140;2023-12-29T05:17:24;5.20;;;4.22;;
11960;SDS011;6040;49.358;11.140;2023-12-29T05:19:51;4.60;;;4.07;;
11960;SDS011;6040;49.358;11.140;2023-12-29T05:22:17;4.47;;;4.05;;
11960;SDS011;6040;49.358;11.140;2023-12-29T05:24:44;4.88;;;4.22;;
11960;SDS011;6040;49.358;11.140;2023-12-29T05:27:11;4.60;;;4.10;;
11960;SDS011;6040;49.358;11.140;2023-12-29T05:29:38;4.63;;;4.13;;
11960;SDS011;6040;49.358;11.140;2023-12-29T05:32:06;5.28;;;4.25;;
11960;SDS011;6040;49.358;11.140;2023-12-29T05:34:33;4.93;;;4.40;;
11960;SDS011;6040;49.358;11.140;2023-12-29T05:36:59;5.20;;;4.63;;
11960;SDS011;6040;49.358;11.140;2023-12-29T05:39:26;6.28;;;5.40;;
11960;SDS011;6040;49.358;11.140;2023-12-29T05:41:54;5.78;;;4.90;;
11960;SDS011;6040;49.358;11.140;2023-12-29T05:44:21;5.60;;;4.72;;
11960;SDS011;6040;49.358;11.140;2023-12-29T05:46:48;5.35;;;4.80;;
11960;SDS011;6040;49.358;11.140;2023-12-29T05:49:16;5.85;;;4.90;;
11960;SDS011;6040;49.358;11.140;2023-12-29T05:51:43;5.82;;;5.20;;
11960;SDS011;6040;49.358;11.140;2023-12-29T05:54:10;5.88;;;5.00;;
11960;SDS011;6040;49.358;11.140;2023-12-29T05:56:37;6.80;;;5.43;;
11960;SDS011;6040;49.358;11.140;2023-12-29T05:59:04;5.63;;;5.05;;
11960;SDS011;6040;49.358;11.140;2023-12-29T06:01:31;5.73;;;5.13;;
11960;SDS011;6040;49.358;11.140;2023-12-29T06:03:58;5.93;;;5.07;;
11960;SDS011;6040;49.358;11.140;2023-12-29T06:06:26;5.97;;;5.32;;
11960;SDS011;6040;49.358;11.140;2023-12-29T06:08:53;5.93;;;5.28;;
11960;SDS011;6040;49.358;11.140;2023-12-29T06:11:20;6.72;;;5.63;;
11960;SDS011;6040;49.358;11.140;2023-12-29T06:13:47;6.50;;;5.70;;
11960;SDS011;6040;49.358;11.140;2023-12-29T06:16:18;5.90;;;5.30;;
11960;SDS011;6040;49.358;11.140;2023-12-29T06:18:45;7.63;;;5.80;;
11960;SDS011;6040;49.358;11.140;2023-12-29T06:21:12;7.60;;;5.40;;
11960;SDS011;6040;49.358;11.140;2023-12-29T06:23:41;5.70;;;5.10;;
11960;SDS011;6040;49.358;11.140;2023-12-29T06:26:13;6.43;;;5.53;;
11960;SDS011;6040;49.358;11.140;2023-12-29T06:28:41;6.47;;;5.68;;
11960;SDS011;6040;49.358;11.140;2023-12-29T06:31:09;7.37;;;5.80;;
11960;SDS011;6040;49.358;11.140;2023-12-29T06:33:35;7.55;;;5.80;;
11960;SDS011;6040;49.358;11.140;2023-12-29T06:36:02;7.35;;;5.72;;
11960;SDS011;6040;49.358;11.140;2023-12-29T06:38:30;6.50;;;5.82;;
11960;SDS011;6040;49.358;11.140;2023-12-29T06:41:00;6.75;;;5.82;;
11960;SDS011;6040;49.358;11.140;2023-12-29T06:43:28;6.10;;;5.50;;
11960;SDS011;6040;49.358;11.140;2023-12-29T06:45:55;5.90;;;5.30;;
11960;SDS011;6040;49.358;11.140;2023-12-29T06:48:22;6.43;;;5.40;;
11960;SDS011;6040;49.358;11.140;2023-12-29T06:50:48;6.90;;;5.60;;
11960;SDS011;6040;49.358;11.140;2023-12-29T06:53:15;6.75;;;5.32;;
11960;SDS011;6040;49.358;11.140;2023-12-29T06:55:42;6.10;;;5.50;;
11960;SDS011;6040;49.358;11.140;2023-12-29T06:58:10;6.00;;;5.03;;
11960;SDS011;6040;49.358;11.140;2023-12-29T07:00:37;6.15;;;5.45;;
11960;SDS011;6040;49.358;11.140;2023-12-29T07:03:04;6.10;;;5.28;;
11960;SDS011;6040;49.358;11.140;2023-12-29T07:05:31;6.05;;;5.07;;
11960;SDS011;6040;49.358;11.140;2023-12-29T07:07:58;5.87;;;4.80;;
11960;SDS011;6040;49.358;11.140;2023-12-29T07:10:25;6.80;;;5.15;;
11960;SDS011;6040;49.358;11.140;2023-12-29T07:12:52;5.93;;;5.10;;
11960;SDS011;6040;49.358;11.140;2023-12-29T07:15:20;5.50;;;5.00;;
11960;SDS011;6040;49.358;11.140;2023-12-29T07:17:47;5.50;;;4.60;;
11960;SDS011;6040;49.358;11.140;2023-12-29T07:20:14;5.15;;;4.65;;
11960;SDS011;6040;49.358;11.140;2023-12-29T07:22:41;5.40;;;4.50;;
11960;SDS011;6040;49.358;11.140;2023-12-29T07:25:09;5.20;;;4.70;;
11960;SDS011;6040;49.358;11.140;2023-12-29T07:27:36;5.22;;;4.65;;
11960;SDS011;6040;49.358;11.140;2023-12-29T07:30:03;4.95;;;4.20;;
11960;SDS011;6040;49.358;11.140;2023-12-29T07:32:32;6.07;;;4.63;;
11960;SDS011;6040;49.358;11.140;2023-12-29T07:34:59;6.32;;;4.85;;
11960;SDS011;6040;49.358;11.140;2023-12-29T07:37:26;5.45;;;4.68;;
11960;SDS011;6040;49.358;11.140;2023-12-29T07:39:53;5.38;;;4.88;;
11960;SDS011;6040;49.358;11.140;2023-12-29T07:42:20;5.30;;;4.80;;
11960;SDS011;6040;49.358;11.140;2023-12-29T07:44:46;5.53;;;4.55;;
11960;SDS011;6040;49.358;11.140;2023-12-29T07:47:13;5.90;;;4.60;;
11960;SDS011;6040;49.358;11.140;2023-12-29T07:49:42;25.02;;;15.02;;
11960;SDS011;6040;49.358;11.140;2023-12-29T07:52:09;13.40;;;9.38;;
11960;SDS011;6040;49.358;11.140;2023-12-29T07:54:36;8.80;;;7.90;;
11960;SDS011;6040;49.358;11.140;2023-12-29T07:57:03;7.95;;;7.20;;
11960;SDS011;6040;49.358;11.140;2023-12-29T07:59:30;8.10;;;6.82;;
11960;SDS011;6040;49.358;11.140;2023-12-29T08:01:57;5.93;;;5.32;;
11960;SDS011;6040;49.358;11.140;2023-12-29T08:04:23;7.60;;;5.90;;
11960;SDS011;6040;49.358;11.140;2023-12-29T08:06:51;6.15;;;5.55;;
11960;SDS011;6040;49.358;11.140;2023-12-29T08:09:18;5.22;;;4.72;;
11960;SDS011;6040;49.358;11.140;2023-12-29T08:11:46;7.13;;;5.20;;
11960;SDS011;6040;49.358;11.140;2023-12-29T08:14:13;5.70;;;4.87;;
11960;SDS011;6040;49.358;11.140;2023-12-29T08:16:40;5.50;;;5.00;;
11960;SDS011;6040;49.358;11.140;2023-12-29T08:19:07;6.43;;;5.72;;
11960;SDS011;6040;49.358;11.140;2023-12-29T08:21:35;6.35;;;5.60;;
11960;SDS011;6040;49.358;11.140;2023-12-29T08:24:03;6.33;;;5.03;;
11960;SDS011;6040;49.358;11.140;2023-12-29T08:26:30;5.05;;;4.63;;
11960;SDS011;6040;49.358;11.140;2023-12-29T08:28:57;5.70;;;4.75;;
11960;SDS011;6040;49.358;11.140;2023-12-29T08:31:24;5.32;;;4.30;;
11960;SDS011;6040;49.358;11.140;2023-12-29T08:33:52;4.10;;;3.70;;
11960;SDS011;6040;49.358;11.140;2023-12-29T08:36:21;5.95;;;3.83;;
11960;SDS011;6040;49.358;11.140;2023-12-29T08:38:48;4.43;;;3.60;;
11960;SDS011;6040;49.358;11.140;2023-12-29T08:41:16;4.20;;;3.80;;
11960;SDS011;6040;49.358;11.140;2023-12-29T08:43:43;4.25;;;3.85;;
11960;SDS011;6040;49.358;11.140;2023-12-29T08:46:10;4.40;;;3.95;;
11960;SDS011;6040;49.358;11.140;2023-12-29T08:48:37;4.25;;;3.80;;
11960;SDS011;6040;49.358;11.140;2023-12-29T08:51:04;4.93;;;4.28;;
11960;SDS011;6040;49.358;11.140;2023-12-29T08:53:31;4.90;;;4.40;;
11960;SDS011;6040;49.358;11.140;2023-12-29T08:56:00;4.75;;;4.15;;
11960;SDS011;6040;49.358;11.140;2023-12-29T08:58:28;4.55;;;4.00;;
11960;SDS011;6040;49.358;11.140;2023-12-29T09:00:56;4.25;;;3.72;;
11960;SDS011;6040;49.358;11.140;2023-12-29T09:03:22;4.10;;;3.70;;
11960;SDS011;6040;49.358;11.140;2023-12-29T09:05:49;4.53;;;3.97;;
11960;SDS011;6040;49.358;11.140;2023-12-29T09:08:16;4.82;;;3.80;;
11960;SDS011;6040;49.358;11.140;2023-12-29T09:10:43;4.70;;;3.80;;
11960;SDS011;6040;49.358;11.140;2023-12-29T09:13:10;5.00;;;3.60;;
11960;SDS011;6040;49.358;11.140;2023-12-29T09:15:38;4.60;;;4.00;;
11960;SDS011;6040;49.358;11.140;2023-12-29T09:18:05;4.70;;;4.18;;
11960;SDS011;6040;49.358;11.140;2023-12-29T09:20:41;4.75;;;4.35;;
11960;SDS011;6040;49.358;11.140;2023-12-29T09:23:08;5.63;;;4.13;;
11960;SDS011;6040;49.358;11.140;2023-12-29T09:25:35;4.75;;;4.30;;
11960;SDS011;6040;49.358;11.140;2023-12-29T09:28:02;4.45;;;4.00;;
11960;SDS011;6040;49.358;11.140;2023-12-29T09:30:29;4.72;;;4.00;;
11960;SDS011;6040;49.358;11.140;2023-12-29T09:32:57;4.20;;;3.80;;
11960;SDS011;6040;49.358;11.140;2023-12-29T09:35:24;4.38;;;3.97;;
11960;SDS011;6040;49.358;11.140;2023-12-29T09:37:51;4.20;;;3.80;;
11960;SDS011;6040;49.358;11.140;2023-12-29T09:40:18;4.50;;;3.88;;
11960;SDS011;6040;49.358;11.140;2023-12-29T09:42:45;4.30;;;3.90;;
11960;SDS011;6040;49.358;11.140;2023-12-29T09:45:13;4.43;;;3.83;;
11960;SDS011;6040;49.358;11.140;2023-12-29T09:47:45;4.23;;;3.83;;
11960;SDS011;6040;49.358;11.140;2023-12-29T09:50:13;5.55;;;3.80;;
11960;SDS011;6040;49.358;11.140;2023-12-29T09:52:41;4.75;;;3.60;;
11960;SDS011;6040;49.358;11.140;2023-12-29T09:55:09;4.75;;;3.78;;
11960;SDS011;6040;49.358;11.140;2023-12-29T09:57:36;4.40;;;4.00;;
11960;SDS011;6040;49.358;11.140;2023-12-29T10:00:04;4.40;;;3.80;;
11960;SDS011;6040;49.358;11.140;2023-12-29T10:02:32;4.38;;;3.78;;
11960;SDS011;6040;49.358;11.140;2023-12-29T10:05:00;4.20;;;3.80;;
11960;SDS011;6040;49.358;11.140;2023-12-29T10:07:31;5.93;;;4.10;;
11960;SDS011;6040;49.358;11.140;2023-12-29T10:10:02;5.05;;;3.80;;
11960;SDS011;6040;49.358;11.140;2023-12-29T10:12:32;4.63;;;3.97;;
11960;SDS011;6040;49.358;11.140;2023-12-29T10:15:04;5.03;;;3.97;;
11960;SDS011;6040;49.358;11.140;2023-12-29T10:17:36;4.57;;;4.18;;
11960;SDS011;6040;49.358;11.140;2023-12-29T10:20:12;4.53;;;4.10;;
11960;SDS011;6040;49.358;11.140;2023-12-29T10:22:51;5.30;;;4.18;;
11960;SDS011;6040;49.358;11.140;2023-12-29T10:25:26;4.72;;;4.30;;
11960;SDS011;6040;49.358;11.140;2023-12-29T10:27:53;4.90;;;4.40;;
11960;SDS011;6040;49.358;11.140;2023-12-29T10:30:22;4.93;;;4.18;;
11960;SDS011;6040;49.358;11.140;2023-12-29T10:32:49;4.60;;;4.20;;
11960;SDS011;6040;49.358;11.140;2023-12-29T10:35:17;5.10;;;4.15;;
11960;SDS011;6040;49.358;11.140;2023-12-29T10:37:44;5.05;;;4.47;;
11960;SDS011;6040;49.358;11.140;2023-12-29T10:40:17;5.78;;;4.90;;
11960;SDS011;6040;49.358;11.140;2023-12-29T10:42:51;5.65;;;5.03;;
11960;SDS011;6040;49.358;11.140;2023-12-29T10:45:19;6.00;;;5.40;;
11960;SDS011;6040;49.358;11.140;2023-12-29T10:47:46;5.35;;;4.78;;
11960;SDS011;6040;49.358;11.140;2023-12-29T10:50:14;6.55;;;5.18;;
11960;SDS011;6040;49.358;11.140;2023-12-29T10:52:40;6.10;;;5.50;;
11960;SDS011;6040;49.358;11.140;2023-12-29T10:55:08;6.00;;;5.40;;
11960;SDS011;6040;49.358;11.140;2023-12-29T10:57:37;6.80;;;5.50;;
11960;SDS011;6040;49.358;11.140;2023-12-29T11:00:05;13.10;;;10.63;;
11960;SDS011;6040;49.358;11.140;2023-12-29T11:02:33;6.85;;;5.93;;
11960;SDS011;6040;49.358;11.140;2023-12-29T11:05:03;6.45;;;5.78;;
11960;SDS011;6040;49.358;11.140;2023-12-29T11:07:31;6.50;;;5.90;;
11960;SDS011;6040;49.358;11.140;2023-12-29T11:10:00;5.82;;;5.22;;
11960;SDS011;6040;49.358;11.140;2023-12-29T11:12:29;6.85;;;5.63;;
11960;SDS011;6040;49.358;11.140;2023-12-29T11:14:59;6.53;;;5.80;;
11960;SDS011;6040;49.358;11.140;2023-12-29T11:17:27;5.85;;;5.05;;
11960;SDS011;6040;49.358;11.140;2023-12-29T11:19:56;5.45;;;4.65;;
11960;SDS011;6040;49.358;11.140;2023-12-29T11:22:24;5.65;;;4.95;;
11960;SDS011;6040;49.358;11.140;2023-12-29T11:24:54;5.97;;;4.70;;
11960;SDS011;6040;49.358;11.140;2023-12-29T11:27:23;6.20;;;5.00;;
11960;SDS011;6040;49.358;11.140;2023-12-29T11:29:56;6.93;;;5.30;;
11960;SDS011;6040;49.358;11.140;2023-12-29T11:32:27;10.32;;;8.63;;
11960;SDS011;6040;49.358;11.140;2023-12-29T11:35:01;5.47;;;4.70;;
11960;SDS011;6040;49.358;11.140;2023-12-29T11:37:42;5.57;;;4.40;;
11960;SDS011;6040;49.358;11.140;2023-12-29T11:40:24;4.90;;;4.43;;
11960;SDS011;6040;49.358;11.140;2023-12-29T11:42:57;5.30;;;4.03;;
11960;SDS011;6040;49.358;11.140;2023-12-29T11:45:29;4.40;;;3.95;;
11960;SDS011;6040;49.358;11.140;2023-12-29T11:47:58;4.88;;;3.90;;
11960;SDS011;6040;49.358;11.140;2023-12-29T11:50:28;5.15;;;4.60;;
11960;SDS011;6040;49.358;11.140;2023-12-29T11:52:57;4.15;;;3.75;;
11960;SDS011;6040;49.358;11.140;2023-12-29T11:55:27;4.20;;;3.50;;
11960;SDS011;6040;49.358;11.140;2023-12-29T11:57:55;4.75;;;3.80;;
11960;SDS011;6040;49.358;11.140;2023-12-29T12:03:19;4.40;;;4.00;;
11960;SDS011;6040;49.358;11.140;2023-12-29T12:05:51;4.55;;;4.07;;
11960;SDS011;6040;49.358;11.140;2023-12-29T12:08:29;4.30;;;3.90;;
11960;SDS011;6040;49.358;11.140;2023-12-29T12:10:57;4.25;;;3.70;;
11960;SDS011;6040;49.358;11.140;2023-12-29T12:14:03;4.63;;;4.00;;
11960;SDS011;6040;49.358;11.140;2023-12-29T12:19:22;4.40;;;4.00;;
11960;SDS011;6040;49.358;11.140;2023-12-29T12:21:53;4.57;;;4.10;;
11960;SDS011;6040;49.358;11.140;2023-12-29T12:24:21;4.95;;;4.15;;
11960;SDS011;6040;49.358;11.140;2023-12-29T12:26:48;5.38;;;4.22;;
11960;SDS011;6040;49.358;11.140;2023-12-29T12:29:15;5.47;;;4.50;;
11960;SDS011;6040;49.358;11.140;2023-12-29T12:31:54;4.82;;;4.32;;
11960;SDS011;6040;49.358;11.140;2023-12-29T12:34:22;6.40;;;4.82;;
11960;SDS011;6040;49.358;11.140;2023-12-29T12:36:50;10.32;;;6.70;;
11960;SDS011;6040;49.358;11.140;2023-12-29T12:39:18;12.73;;;7.20;;
11960;SDS011;6040;49.358;11.140;2023-12-29T12:41:45;8.77;;;6.07;;
11960;SDS011;6040;49.358;11.140;2023-12-29T12:44:12;5.15;;;3.63;;
11960;SDS011;6040;49.358;11.140;2023-12-29T12:46:40;3.88;;;3.40;;
11960;SDS011;6040;49.358;11.140;2023-12-29T12:49:11;3.00;;;2.70;;
11960;SDS011;6040;49.358;11.140;2023-12-29T12:51:40;2.50;;;2.30;;
11960;SDS011;6040;49.358;11.140;2023-12-29T12:54:08;2.17;;;1.98;;
11960;SDS011;6040;49.358;11.140;2023-12-29T12:56:37;1.95;;;1.73;;
11960;SDS011;6040;49.358;11.140;2023-12-29T12:59:04;1.55;;;1.45;;
11960;SDS011;6040;49.358;11.140;2023-12-29T13:01:34;1.75;;;1.40;;
11960;SDS011;6040;49.358;11.140;2023-12-29T13:04:04;1.50;;;1.40;;
11960;SDS011;6040;49.358;11.140;2023-12-29T13:06:32;1.33;;;1.23;;
11960;SDS011;6040;49.358;11.140;2023-12-29T13:09:01;1.42;;;1.30;;
11960;SDS011;6040;49.358;11.140;2023-12-29T13:11:31;1.60;;;1.20;;
11960;SDS011;6040;49.358;11.140;2023-12-29T13:13:58;1.52;;;1.20;;
11960;SDS011;6040;49.358;11.140;2023-12-29T13:16:30;1.42;;;1.20;;
11960;SDS011;6040;49.358;11.140;2023-12-29T13:19:10;1.40;;;1.10;;
11960;SDS011;6040;49.358;11.140;2023-12-29T13:21:42;1.73;;;1.33;;
11960;SDS011;6040;49.358;11.140;2023-12-29T13:24:12;1.30;;;1.20;;
11960;SDS011;6040;49.358;11.140;2023-12-29T13:26:40;1.30;;;1.20;;
11960;SDS011;6040;49.358;11.140;2023-12-29T13:29:08;1.23;;;1.13;;
11960;SDS011;6040;49.358;11.140;2023-12-29T13:31:35;1.30;;;1.20;;
11960;SDS011;6040;49.358;11.140;2023-12-29T13:34:03;1.00;;;1.00;;
11960;SDS011;6040;49.358;11.140;2023-12-29T13:36:38;0.90;;;0.90;;
11960;SDS011;6040;49.358;11.140;2023-12-29T13:39:12;1.05;;;1.05;;
11960;SDS011;6040;49.358;11.140;2023-12-29T13:41:47;1.83;;;1.00;;
11960;SDS011;6040;49.358;11.140;2023-12-29T13:44:15;1.23;;;1.10;;
11960;SDS011;6040;49.358;11.140;2023-12-29T13:46:43;1.15;;;1.00;;
11960;SDS011;6040;49.358;11.140;2023-12-29T13:49:10;1.17;;;1.07;;
11960;SDS011;6040;49.358;11.140;2023-12-29T13:51:37;1.15;;;1.08;;
11960;SDS011;6040;49.358;11.140;2023-12-29T13:54:04;1.00;;;1.00;;
11960;SDS011;6040;49.358;11.140;2023-12-29T13:56:32;0.90;;;0.90;;
11960;SDS011;6040;49.358;11.140;2023-12-29T13:58:59;2.20;;;1.10;;
11960;SDS011;6040;49.358;11.140;2023-12-29T14:01:34;1.05;;;0.98;;
11960;SDS011;6040;49.358;11.140;2023-12-29T14:04:02;1.40;;;1.10;;
11960;SDS011;6040;49.358;11.140;2023-12-29T14:06:36;1.25;;;1.10;;
11960;SDS011;6040;49.358;11.140;2023-12-29T14:09:05;1.20;;;1.10;;
11960;SDS011;6040;49.358;11.140;2023-12-29T14:11:33;1.07;;;1.00;;
11960;SDS011;6040;49.358;11.140;2023-12-29T14:14:01;2.20;;;1.27;;
11960;SDS011;6040;49.358;11.140;2023-12-29T14:16:28;1.30;;;1.20;;
11960;SDS011;6040;49.358;11.140;2023-12-29T14:18:55;1.50;;;1.08;;
11960;SDS011;6040;49.358;11.140;2023-12-29T14:21:24;1.30;;;1.20;;
11960;SDS011;6040;49.358;11.140;2023-12-29T14:23:57;1.25;;;1.20;;
11960;SDS011;6040;49.358;11.140;2023-12-29T14:26:26;1.20;;;1.10;;
11960;SDS011;6040;49.358;11.140;2023-12-29T14:29:01;1.20;;;1.10;;
11960;SDS011;6040;49.358;11.140;2023-12-29T14:31:28;1.27;;;1.15;;
11960;SDS011;6040;49.358;11.140;2023-12-29T14:33:58;1.33;;;1.17;;
11960;SDS011;6040;49.358;11.140;2023-12-29T14:36:25;1.40;;;1.30;;
11960;SDS011;6040;49.358;11.140;2023-12-29T14:38:52;1.10;;;1.00;;
11960;SDS011;6040;49.358;11.140;2023-12-29T14:41:19;1.10;;;1.00;;
11960;SDS011;6040;49.358;11.140;2023-12-29T14:43:46;1.52;;;1.30;;
11960;SDS011;6040;49.358;11.140;2023-12-29T14:46:14;1.40;;;1.30;;
11960;SDS011;6040;49.358;11.140;2023-12-29T14:48:41;1.00;;;1.00;;
11960;SDS011;6040;49.358;11.140;2023-12-29T14:51:08;1.30;;;1.20;;
11960;SDS011;6040;49.358;11.140;2023-12-29T14:53:35;1.20;;;1.10;;
11960;SDS011;6040;49.358;11.140;2023-12-29T14:56:01;1.75;;;1.27;;
11960;SDS011;6040;49.358;11.140;2023-12-29T14:58:29;1.48;;;1.30;;